createdAt,value
2022-10-15T00:00:45.926Z,9.12
2022-10-15T00:03:27.277Z,9.18
2022-10-15T00:06:09.772Z,9.09
2022-10-15T00:08:51.697Z,9.02
2022-10-15T00:11:33.116Z,9.07
2022-10-15T00:14:14.632Z,9.12
2022-10-15T00:16:55.939Z,9.11
2022-10-15T00:19:37.346Z,9.04
2022-10-15T00:22:18.794Z,8.97
2022-10-15T00:25:00.446Z,8.94
2022-10-15T00:27:49.234Z,8.94
2022-10-15T00:30:31.042Z,8.89
2022-10-15T00:33:12.466Z,8.81
2022-10-15T00:35:44.734Z,8.78
2022-10-15T00:38:16.697Z,8.79
2022-10-15T00:40:48.695Z,8.76
2022-10-15T00:43:34.938Z,8.77
2022-10-15T00:46:13.442Z,8.72
2022-10-15T00:48:48.244Z,8.78
2022-10-15T00:51:21.291Z,8.80
2022-10-15T00:53:53.310Z,8.80
2022-10-15T00:56:26.861Z,8.79
2022-10-15T00:59:00.016Z,8.79
2022-10-15T01:01:32.072Z,8.80
2022-10-15T01:04:05.815Z,8.81
2022-10-15T01:06:38.159Z,8.77
2022-10-15T01:09:10.642Z,8.71
2022-10-15T01:11:46.333Z,8.71
2022-10-15T01:14:28.082Z,8.73
2022-10-15T01:17:04.151Z,8.84
2022-10-15T01:19:50.969Z,8.85
2022-10-15T01:22:30.406Z,8.85
2022-10-15T01:25:08.466Z,8.93
2022-10-15T01:27:42.540Z,8.81
2022-10-15T01:30:20.229Z,8.91
2022-10-15T01:33:10.515Z,8.93
2022-10-15T01:35:47.037Z,8.91
2022-10-15T01:38:23.611Z,8.96
2022-10-15T01:40:58.506Z,8.98
2022-10-15T01:43:35.237Z,9.12
2022-10-15T01:46:29.091Z,9.12
2022-10-15T01:49:26.416Z,9.09
2022-10-15T01:52:00.735Z,9.17
2022-10-15T01:54:35.221Z,9.17
2022-10-15T01:57:07.712Z,9.14
2022-10-15T01:59:40.818Z,9.15
2022-10-15T02:02:13.746Z,9.17
2022-10-15T02:04:45.918Z,9.20
2022-10-15T02:07:27.203Z,9.20
2022-10-15T02:10:06.973Z,9.21
2022-10-15T02:12:44.387Z,9.25
2022-10-15T02:15:17.727Z,9.24
2022-10-15T02:17:57.545Z,9.16
2022-10-15T02:20:35.342Z,9.19
2022-10-15T02:23:09.955Z,9.21
2022-10-15T02:25:42.782Z,9.10
2022-10-15T02:28:15.586Z,9.21
2022-10-15T02:30:52.048Z,9.21
2022-10-15T02:33:26.017Z,9.22
2022-10-15T02:35:58.681Z,9.25
2022-10-15T02:38:32.578Z,9.18
2022-10-15T02:41:05.014Z,9.16
2022-10-15T02:43:37.673Z,9.02
2022-10-15T02:46:12.094Z,9.08
2022-10-15T02:48:44.830Z,9.11
2022-10-15T02:51:16.840Z,9.08
2022-10-15T02:53:48.816Z,9.03
2022-10-15T02:56:20.889Z,8.93
2022-10-15T02:58:52.946Z,8.99
2022-10-15T03:01:25.697Z,8.99
2022-10-15T03:03:59.092Z,8.99
2022-10-15T03:06:31.207Z,9.06
2022-10-15T03:09:04.066Z,9.06
2022-10-15T03:11:37.776Z,9.04
2022-10-15T03:14:11.850Z,9.02
2022-10-15T03:16:43.896Z,9.05
2022-10-15T03:19:17.395Z,9.03
2022-10-15T03:21:51.421Z,9.02
2022-10-15T03:24:24.221Z,8.94
2022-10-15T03:26:57.423Z,8.91
2022-10-15T03:29:29.407Z,9.00
2022-10-15T03:32:07.051Z,9.02
2022-10-15T03:34:39.720Z,9.00
2022-10-15T03:37:12.672Z,8.97
2022-10-15T03:39:45.043Z,8.98
2022-10-15T03:42:17.550Z,8.98
2022-10-15T03:44:52.979Z,8.96
2022-10-15T03:47:25.642Z,8.94
2022-10-15T03:49:58.833Z,8.82
2022-10-15T03:52:30.861Z,8.88
2022-10-15T03:55:04.913Z,8.78
2022-10-15T03:57:37.193Z,8.77
2022-10-15T04:00:12.100Z,8.76
2022-10-15T04:02:46.963Z,8.63
2022-10-15T04:05:30.227Z,8.64
2022-10-15T04:08:07.802Z,8.61
2022-10-15T04:10:44.119Z,8.67
2022-10-15T04:13:16.480Z,8.63
2022-10-15T04:15:48.742Z,8.64
2022-10-15T04:18:21.522Z,8.70
2022-10-15T04:20:59.165Z,8.65
2022-10-15T04:23:31.158Z,8.67
2022-10-15T04:26:21.482Z,8.71
2022-10-15T04:28:53.674Z,8.75
2022-10-15T04:31:27.978Z,8.79
2022-10-15T04:34:00.028Z,8.64
2022-10-15T04:36:33.699Z,8.68
2022-10-15T04:39:13.816Z,8.67
2022-10-15T04:41:48.563Z,8.68
2022-10-15T04:44:26.811Z,8.63
2022-10-15T04:47:01.942Z,8.75
2022-10-15T04:49:54.187Z,8.72
2022-10-15T04:52:59.649Z,8.73
2022-10-15T04:55:33.335Z,8.76
2022-10-15T04:58:06.784Z,8.68
2022-10-15T05:00:39.035Z,8.69
2022-10-15T05:03:40.996Z,8.76
2022-10-15T05:06:17.456Z,8.83
2022-10-15T05:08:50.793Z,8.88
2022-10-15T05:11:29.227Z,8.90
2022-10-15T05:14:03.144Z,8.96
2022-10-15T05:16:37.172Z,8.85
2022-10-15T05:19:10.735Z,8.88
2022-10-15T05:21:43.977Z,8.85
2022-10-15T05:24:27.564Z,8.80
2022-10-15T05:27:04.996Z,8.81
2022-10-15T05:29:39.158Z,8.85
2022-10-15T05:32:11.279Z,8.84
2022-10-15T05:34:45.115Z,8.83
2022-10-15T05:37:20.688Z,8.87
2022-10-15T05:39:54.574Z,8.93
2022-10-15T05:42:26.678Z,8.92
2022-10-15T05:45:02.933Z,8.94
2022-10-15T05:47:35.018Z,8.98
2022-10-15T05:50:25.058Z,9.06
2022-10-15T05:53:00.442Z,9.17
2022-10-15T05:55:53.193Z,9.22
2022-10-15T05:58:25.269Z,9.27
2022-10-15T06:00:58.075Z,9.25
2022-10-15T06:03:30.282Z,9.23
2022-10-15T06:06:02.307Z,9.24
2022-10-15T06:08:36.646Z,9.32
2022-10-15T06:11:09.710Z,9.32
2022-10-15T06:13:42.723Z,9.33
2022-10-15T06:16:19.305Z,9.33
2022-10-15T06:18:54.751Z,9.35
2022-10-15T06:21:26.743Z,9.36
2022-10-15T06:23:58.732Z,9.35
2022-10-15T06:26:31.368Z,9.26
2022-10-15T06:29:03.489Z,9.21
2022-10-15T06:31:35.492Z,9.29
2022-10-15T06:34:07.490Z,9.36
2022-10-15T06:36:39.518Z,9.29
2022-10-15T06:39:11.649Z,9.28
2022-10-15T06:41:45.185Z,9.19
2022-10-15T06:44:17.275Z,9.17
2022-10-15T06:46:49.267Z,9.16
2022-10-15T06:49:21.251Z,9.20
2022-10-15T06:51:53.243Z,9.22
2022-10-15T06:54:25.263Z,9.26
2022-10-15T06:56:57.895Z,9.34
2022-10-15T06:59:29.854Z,9.38
2022-10-15T07:02:03.100Z,9.38
2022-10-15T07:04:35.112Z,9.48
2022-10-15T07:07:07.091Z,9.63
2022-10-15T07:09:39.109Z,9.67
2022-10-15T07:12:11.884Z,9.74
2022-10-15T07:14:43.855Z,9.74
2022-10-15T07:17:16.149Z,9.77
2022-10-15T07:19:48.114Z,9.87
2022-10-15T07:22:20.059Z,9.97
2022-10-15T07:24:52.039Z,10.08
2022-10-15T07:27:24.750Z,10.15
2022-10-15T07:29:57.199Z,10.21
2022-10-15T07:32:29.173Z,10.30
2022-10-15T07:35:01.376Z,10.40
2022-10-15T07:37:34.484Z,10.38
2022-10-15T07:40:06.893Z,10.44
2022-10-15T07:42:41.342Z,10.54
2022-10-15T07:45:13.524Z,10.65
2022-10-15T07:47:45.489Z,10.72
2022-10-15T07:50:21.066Z,10.84
2022-10-15T07:52:53.062Z,10.82
2022-10-15T07:55:25.109Z,10.89
2022-10-15T07:57:57.859Z,10.95
2022-10-15T08:00:29.893Z,10.97
2022-10-15T08:03:01.928Z,11.06
2022-10-15T08:05:34.089Z,11.18
2022-10-15T08:08:06.085Z,11.39
2022-10-15T08:10:38.099Z,11.50
2022-10-15T08:13:10.734Z,11.63
2022-10-15T08:15:42.837Z,11.65
2022-10-15T08:18:15.070Z,11.77
2022-10-15T08:20:47.077Z,11.88
2022-10-15T08:23:19.047Z,12.00
2022-10-15T08:25:51.068Z,12.11
2022-10-15T08:28:23.768Z,12.20
2022-10-15T08:30:57.711Z,12.37
2022-10-15T08:33:31.303Z,12.51
2022-10-15T08:36:04.261Z,12.52
2022-10-15T08:38:36.274Z,12.67
2022-10-15T08:41:18.554Z,12.71
2022-10-15T08:43:51.694Z,12.62
2022-10-15T08:46:28.646Z,12.84
2022-10-15T08:49:01.430Z,12.95
2022-10-15T08:51:40.066Z,13.01
2022-10-15T08:54:15.449Z,13.25
2022-10-15T08:56:49.711Z,13.30
2022-10-15T08:59:31.371Z,13.46
2022-10-15T09:02:08.380Z,13.53
2022-10-15T09:04:45.792Z,13.64
2022-10-15T09:07:19.174Z,13.55
2022-10-15T09:09:52.737Z,13.58
2022-10-15T09:12:35.078Z,13.53
2022-10-15T09:15:10.037Z,13.42
2022-10-15T09:17:43.741Z,13.52
2022-10-15T09:20:20.610Z,13.54
2022-10-15T09:22:59.137Z,13.75
2022-10-15T09:25:34.435Z,13.76
2022-10-15T09:28:09.008Z,13.81
2022-10-15T09:30:43.752Z,13.83
2022-10-15T09:33:18.651Z,13.91
2022-10-15T09:35:52.658Z,13.96
2022-10-15T09:38:27.535Z,14.06
2022-10-15T09:41:05.461Z,14.28
2022-10-15T09:43:40.136Z,14.53
2022-10-15T09:46:12.934Z,14.80
2022-10-15T09:48:48.008Z,15.14
2022-10-15T09:51:24.358Z,15.07
2022-10-15T09:54:01.102Z,15.16
2022-10-15T09:56:34.994Z,15.03
2022-10-15T09:59:09.568Z,14.97
2022-10-15T10:01:55.910Z,15.06
2022-10-15T10:04:28.771Z,14.82
2022-10-15T10:07:03.354Z,14.53
2022-10-15T10:09:37.929Z,14.62
2022-10-15T10:12:18.423Z,14.69
2022-10-15T10:14:54.333Z,14.57
2022-10-15T10:17:27.368Z,14.72
2022-10-15T10:20:09.843Z,14.74
2022-10-15T10:22:45.613Z,14.61
2022-10-15T10:25:27.268Z,14.61
2022-10-15T10:28:03.507Z,14.36
2022-10-15T10:30:36.957Z,14.31
2022-10-15T10:33:12.824Z,14.23
2022-10-15T10:35:45.843Z,14.18
2022-10-15T10:38:19.647Z,14.01
2022-10-15T10:40:53.284Z,14.00
2022-10-15T10:43:26.209Z,13.98
2022-10-15T10:45:59.079Z,13.94
2022-10-15T10:48:38.509Z,13.86
2022-10-15T10:51:13.066Z,13.79
2022-10-15T10:53:50.615Z,13.88
2022-10-15T10:56:23.854Z,13.80
2022-10-15T10:58:58.206Z,13.66
2022-10-15T11:01:30.283Z,13.81
2022-10-15T11:04:03.308Z,13.85
2022-10-15T11:06:52.178Z,13.85
2022-10-15T11:09:37.409Z,13.95
2022-10-15T11:12:18.314Z,13.96
2022-10-15T11:14:53.123Z,13.87
2022-10-15T11:17:35.783Z,14.07
2022-10-15T11:20:32.131Z,14.12
2022-10-15T11:23:14.194Z,14.17
2022-10-15T11:25:49.366Z,14.32
2022-10-15T11:28:27.365Z,14.34
2022-10-15T11:31:04.147Z,14.47
2022-10-15T11:33:45.271Z,14.42
2022-10-15T11:36:25.184Z,14.43
2022-10-15T11:39:06.476Z,14.36
2022-10-15T11:41:44.635Z,14.41
2022-10-15T11:44:32.318Z,14.29
2022-10-15T11:47:12.555Z,14.46
2022-10-15T11:49:53.377Z,14.47
2022-10-15T11:52:37.035Z,14.69
2022-10-15T11:55:11.934Z,14.77
2022-10-15T11:57:45.598Z,14.88
2022-10-15T12:00:23.243Z,14.88
2022-10-15T12:02:56.634Z,15.05
2022-10-15T12:05:31.446Z,15.04
2022-10-15T12:10:55.842Z,15.06
2022-10-15T12:13:29.686Z,15.10
2022-10-15T12:16:08.860Z,15.03
2022-10-15T12:18:44.421Z,14.96
2022-10-15T12:21:36.341Z,14.89
2022-10-15T12:24:23.130Z,14.96
2022-10-15T12:26:56.090Z,15.11
2022-10-15T12:29:28.118Z,15.24
2022-10-15T12:32:00.139Z,15.30
2022-10-15T12:34:36.576Z,15.12
2022-10-15T12:37:16.333Z,15.07
2022-10-15T12:39:53.980Z,15.06
2022-10-15T12:42:31.669Z,15.23
2022-10-15T12:45:05.884Z,15.05
2022-10-15T12:47:47.666Z,14.90
2022-10-15T12:50:20.299Z,14.95
2022-10-15T12:52:54.340Z,15.11
2022-10-15T12:55:28.184Z,15.11
2022-10-15T12:58:14.990Z,15.08
2022-10-15T13:00:47.773Z,15.08
2022-10-15T13:03:25.514Z,14.98
2022-10-15T13:06:12.509Z,15.13
2022-10-15T13:08:45.214Z,15.21
2022-10-15T13:11:19.662Z,15.28
2022-10-15T13:13:55.135Z,15.24
2022-10-15T13:16:28.316Z,15.23
2022-10-15T13:19:00.406Z,15.25
2022-10-15T13:21:49.763Z,15.29
2022-10-15T13:24:23.977Z,15.25
2022-10-15T13:26:56.917Z,15.06
2022-10-15T13:29:28.922Z,15.06
2022-10-15T13:32:01.645Z,15.17
2022-10-15T13:34:35.983Z,14.97
2022-10-15T13:37:16.663Z,14.84
2022-10-15T13:39:49.975Z,15.09
2022-10-15T13:42:22.870Z,15.08
2022-10-15T13:44:56.190Z,15.16
2022-10-15T13:47:31.253Z,14.68
2022-10-15T13:50:27.158Z,14.64
2022-10-15T13:53:01.182Z,14.45
2022-10-15T13:55:35.626Z,14.52
2022-10-15T13:58:17.074Z,14.30
2022-10-15T14:00:50.524Z,14.23
2022-10-15T14:03:23.470Z,14.32
2022-10-15T14:05:56.065Z,14.27
2022-10-15T14:08:29.062Z,14.15
2022-10-15T14:11:01.155Z,14.28
2022-10-15T14:13:33.190Z,14.18
2022-10-15T14:16:13.341Z,14.04
2022-10-15T14:18:49.163Z,14.12
2022-10-15T14:21:28.051Z,14.27
2022-10-15T14:24:04.739Z,14.13
2022-10-15T14:26:38.468Z,14.03
2022-10-15T14:29:16.382Z,13.87
2022-10-15T14:31:48.554Z,13.78
2022-10-15T14:34:29.568Z,13.61
2022-10-15T14:37:02.030Z,13.59
2022-10-15T14:39:35.035Z,13.54
2022-10-15T14:42:25.538Z,13.43
2022-10-15T14:45:09.814Z,13.35
2022-10-15T14:47:44.754Z,13.28
2022-10-15T14:50:17.974Z,13.26
2022-10-15T14:52:51.220Z,13.15
2022-10-15T14:55:32.472Z,13.06
2022-10-15T14:58:07.890Z,13.02
2022-10-15T15:00:41.659Z,13.01
2022-10-15T15:03:14.924Z,12.86
2022-10-15T15:05:49.151Z,12.85
2022-10-15T15:08:21.675Z,12.82
2022-10-15T15:10:55.185Z,12.72
2022-10-15T15:13:28.372Z,12.58
2022-10-15T15:16:02.053Z,12.49
2022-10-15T15:18:34.030Z,12.46
2022-10-15T15:21:07.604Z,12.45
2022-10-15T15:23:40.278Z,12.48
2022-10-15T15:26:12.314Z,12.49
2022-10-15T15:28:44.348Z,12.44
2022-10-15T15:31:17.393Z,12.44
2022-10-15T15:33:49.398Z,12.30
2022-10-15T15:36:23.923Z,12.27
2022-10-15T15:38:58.074Z,12.34
2022-10-15T15:41:30.301Z,12.24
2022-10-15T15:44:03.957Z,12.20
2022-10-15T15:46:35.943Z,12.24
2022-10-15T15:49:07.933Z,12.32
2022-10-15T15:51:40.697Z,12.32
2022-10-15T15:54:12.682Z,12.26
2022-10-15T15:56:44.818Z,12.20
2022-10-15T15:59:18.635Z,12.05
2022-10-15T16:01:50.733Z,12.00
2022-10-15T16:04:22.805Z,12.05
2022-10-15T16:06:55.478Z,11.96
2022-10-15T16:09:27.495Z,11.85
2022-10-15T16:12:01.111Z,11.84
2022-10-15T16:14:33.118Z,11.68
2022-10-15T16:17:05.094Z,11.60
2022-10-15T16:19:37.147Z,11.59
2022-10-15T16:22:10.288Z,11.48
2022-10-15T16:24:42.266Z,11.41
2022-10-15T16:27:14.216Z,11.33
2022-10-15T16:29:46.231Z,11.23
2022-10-15T16:32:18.224Z,11.21
2022-10-15T16:34:50.503Z,11.19
2022-10-15T16:37:23.494Z,11.16
2022-10-15T16:39:55.719Z,11.10
2022-10-15T16:42:27.695Z,10.88
2022-10-15T16:44:59.700Z,10.83
2022-10-15T16:47:31.707Z,10.79
2022-10-15T16:50:04.113Z,10.77
2022-10-15T16:52:36.812Z,10.66
2022-10-15T16:55:09.215Z,10.55
2022-10-15T16:57:41.262Z,10.58
2022-10-15T17:00:13.600Z,10.53
2022-10-15T17:02:45.610Z,10.51
2022-10-15T17:05:17.653Z,10.45
2022-10-15T17:07:50.315Z,10.38
2022-10-15T17:10:24.945Z,10.36
2022-10-15T17:12:56.893Z,10.34
2022-10-15T17:15:28.894Z,10.31
2022-10-15T17:18:00.894Z,10.22
2022-10-15T17:20:34.102Z,10.26
2022-10-15T17:23:06.750Z,10.23
2022-10-15T17:25:38.933Z,10.17
2022-10-15T17:28:14.578Z,10.14
2022-10-15T17:30:46.884Z,10.15
2022-10-15T17:33:18.924Z,10.07
2022-10-15T17:35:50.984Z,10.03
2022-10-15T17:38:23.950Z,9.97
2022-10-15T17:40:56.077Z,10.02
2022-10-15T17:43:28.037Z,10.03
2022-10-15T17:46:00.278Z,10.01
2022-10-15T17:48:32.354Z,10.03
2022-10-15T17:51:05.001Z,10.00
2022-10-15T17:53:37.755Z,9.98
2022-10-15T17:56:11.450Z,9.95
2022-10-15T17:58:43.918Z,9.85
2022-10-15T18:01:27.912Z,9.84
2022-10-15T18:04:09.210Z,9.84
2022-10-15T18:06:43.067Z,9.76
2022-10-15T18:09:18.313Z,9.74
2022-10-15T18:11:50.570Z,9.59
2022-10-15T18:14:22.579Z,9.53
2022-10-15T18:16:54.674Z,9.52
2022-10-15T18:19:27.450Z,9.41
2022-10-15T18:21:59.505Z,9.47
2022-10-15T18:24:32.414Z,9.40
2022-10-15T18:27:09.658Z,9.43
2022-10-15T18:29:43.496Z,9.38
2022-10-15T18:32:15.701Z,9.33
2022-10-15T18:34:47.768Z,9.39
2022-10-15T18:37:19.763Z,9.46
2022-10-15T18:39:52.429Z,9.48
2022-10-15T18:42:24.861Z,9.45
2022-10-15T18:44:57.081Z,9.58
2022-10-15T18:47:29.160Z,9.59
2022-10-15T18:50:01.175Z,9.56
2022-10-15T18:52:39.890Z,9.58
2022-10-15T18:55:13.317Z,9.68
2022-10-15T18:57:47.196Z,9.72
2022-10-15T19:00:19.354Z,9.76
2022-10-15T19:02:51.346Z,9.81
2022-10-15T19:05:23.315Z,9.85
2022-10-15T19:07:55.297Z,9.89
2022-10-15T19:10:27.956Z,9.88
2022-10-15T19:13:00.074Z,9.88
2022-10-15T19:15:35.729Z,9.88
2022-10-15T19:18:10.412Z,9.89
2022-10-15T19:20:42.399Z,9.89
2022-10-15T19:23:14.682Z,9.92
2022-10-15T19:25:47.438Z,9.88
2022-10-15T19:28:19.509Z,9.86
2022-10-15T19:30:54.876Z,9.81
2022-10-15T19:33:28.000Z,9.73
2022-10-15T19:36:00.033Z,9.69
2022-10-15T19:38:32.039Z,9.70
2022-10-15T19:41:04.802Z,9.75
2022-10-15T19:43:36.827Z,9.71
2022-10-15T19:46:08.899Z,9.63
2022-10-15T19:48:43.559Z,9.65
2022-10-15T19:51:15.545Z,9.62
2022-10-15T19:53:50.254Z,9.47
2022-10-15T19:56:22.926Z,9.42
2022-10-15T19:58:55.492Z,9.36
2022-10-15T20:01:28.198Z,9.24
2022-10-15T20:04:05.055Z,9.21
2022-10-15T20:06:38.616Z,9.21
2022-10-15T20:09:10.659Z,9.15
2022-10-15T20:11:44.295Z,9.05
2022-10-15T20:14:16.280Z,8.99
2022-10-15T20:16:48.298Z,8.92
2022-10-15T20:19:20.820Z,8.82
2022-10-15T20:21:52.793Z,8.77
2022-10-15T20:24:24.837Z,8.73
2022-10-15T20:26:57.534Z,8.57
2022-10-15T20:29:29.501Z,8.49
2022-10-15T20:32:10.693Z,8.43
2022-10-15T20:34:43.231Z,8.37
2022-10-15T20:37:16.919Z,8.38
2022-10-15T20:39:48.965Z,8.30
2022-10-15T20:42:21.743Z,8.23
2022-10-15T20:44:53.751Z,8.13
2022-10-15T20:47:25.765Z,8.15
2022-10-15T20:49:57.862Z,8.14
2022-10-15T20:52:30.364Z,8.10
2022-10-15T20:55:02.682Z,8.06
2022-10-15T20:57:35.865Z,7.93
2022-10-15T21:00:08.823Z,7.93
2022-10-15T21:02:41.310Z,7.85
2022-10-15T21:05:13.301Z,7.81
2022-10-15T21:07:45.271Z,7.76
2022-10-15T21:10:17.424Z,7.78
2022-10-15T21:12:50.047Z,7.74
2022-10-15T21:15:22.052Z,7.66
2022-10-15T21:17:54.006Z,7.59
2022-10-15T21:20:26.126Z,7.55
2022-10-15T21:22:58.106Z,7.47
2022-10-15T21:25:30.267Z,7.44
2022-10-15T21:28:02.971Z,7.41
2022-10-15T21:30:38.733Z,7.33
2022-10-15T21:33:10.706Z,7.28
2022-10-15T21:35:42.759Z,7.30
2022-10-15T21:38:14.723Z,7.19
2022-10-15T21:40:48.645Z,7.20
2022-10-15T21:43:21.308Z,7.19
2022-10-15T21:45:53.381Z,7.12
2022-10-15T21:48:26.782Z,7.05
2022-10-15T21:50:58.834Z,7.06
2022-10-15T21:53:30.863Z,7.06
2022-10-15T21:56:04.855Z,6.98
2022-10-15T21:58:38.112Z,6.88
2022-10-15T22:01:14.554Z,6.89
2022-10-15T22:03:49.525Z,6.93
2022-10-15T22:06:21.586Z,6.80
2022-10-15T22:08:53.847Z,6.84
2022-10-15T22:14:04.942Z,6.87
2022-10-15T22:16:37.910Z,6.89
2022-10-15T22:19:12.699Z,6.84
2022-10-15T22:21:44.928Z,6.87
2022-10-15T22:24:18.325Z,6.90
2022-10-15T22:26:51.226Z,6.82
2022-10-15T22:29:24.677Z,6.80
2022-10-15T22:31:56.682Z,6.70
2022-10-15T22:34:28.690Z,6.73
2022-10-15T22:37:00.670Z,6.68
2022-10-15T22:39:32.640Z,6.65
2022-10-15T22:42:05.611Z,6.58
2022-10-15T22:44:38.359Z,6.55
2022-10-15T22:47:10.629Z,6.54
2022-10-15T22:49:42.574Z,6.52
2022-10-15T22:52:14.554Z,6.49
2022-10-15T22:54:46.535Z,6.55
2022-10-15T22:57:19.665Z,6.57
2022-10-15T22:59:55.866Z,6.50
2022-10-15T23:02:30.636Z,6.43
2022-10-15T23:05:02.709Z,6.39
2022-10-15T23:07:34.675Z,6.40
2022-10-15T23:10:06.887Z,6.37
2022-10-15T23:12:39.008Z,6.21
2022-10-15T23:15:11.651Z,6.12
2022-10-15T23:17:43.632Z,6.14
2022-10-15T23:20:15.598Z,6.12
2022-10-15T23:22:47.579Z,6.10
2022-10-15T23:25:19.534Z,6.15
2022-10-15T23:27:51.501Z,6.13
2022-10-15T23:30:24.972Z,6.07
2022-10-15T23:32:57.353Z,6.09
2022-10-15T23:35:29.356Z,6.04
2022-10-15T23:38:01.375Z,6.08
2022-10-15T23:40:33.376Z,6.01
2022-10-15T23:43:05.362Z,6.02
2022-10-15T23:45:40.815Z,5.96
2022-10-15T23:48:13.672Z,5.91
2022-10-15T23:50:45.646Z,5.88
2022-10-15T23:53:18.017Z,5.81
2022-10-15T23:55:50.002Z,5.82
2022-10-15T23:58:21.953Z,5.84
